sensor_id;sensor_type;location;lat;lon;timestamp;temperature;humidity
46438;DHT22;32137;48.728;9.142;2024-02-23T00:00:10;7.10;99.90
46438;DHT22;32137;48.728;9.142;2024-02-23T00:02:37;6.80;99.90
46438;DHT22;32137;48.728;9.142;2024-02-23T00:05:02;7.10;99.90
46438;DHT22;32137;48.728;9.142;2024-02-23T00:07:28;7.20;99.90
46438;DHT22;32137;48.728;9.142;2024-02-23T00:09:53;7.20;99.90
46438;DHT22;32137;48.728;9.142;2024-02-23T00:12:18;7.20;99.90
46438;DHT22;32137;48.728;9.142;2024-02-23T00:14:44;7.20;99.90
46438;DHT22;32137;48.728;9.142;2024-02-23T00:17:10;7.10;99.90
46438;DHT22;32137;48.728;9.142;2024-02-23T00:19:37;7.00;99.90
46438;DHT22;32137;48.728;9.142;2024-02-23T00:22:02;7.20;99.90
46438;DHT22;32137;48.728;9.142;2024-02-23T00:24:28;6.80;99.90
46438;DHT22;32137;48.728;9.142;2024-02-23T00:26:54;7.10;99.90
46438;DHT22;32137;48.728;9.142;2024-02-23T00:29:20;7.00;99.90
46438;DHT22;32137;48.728;9.142;2024-02-23T00:31:46;7.10;99.90
46438;DHT22;32137;48.728;9.142;2024-02-23T00:34:12;7.10;99.90
46438;DHT22;32137;48.728;9.142;2024-02-23T00:36:39;6.80;99.90
46438;DHT22;32137;48.728;9.142;2024-02-23T00:39:05;7.00;99.90
46438;DHT22;32137;48.728;9.142;2024-02-23T00:41:32;7.20;99.90
46438;DHT22;32137;48.728;9.142;2024-02-23T00:43:58;7.20;99.90
46438;DHT22;32137;48.728;9.142;2024-02-23T00:46:23;6.90;99.90
46438;DHT22;32137;48.728;9.142;2024-02-23T00:48:49;6.70;99.90
46438;DHT22;32137;48.728;9.142;2024-02-23T00:51:14;7.10;99.90
46438;DHT22;32137;48.728;9.142;2024-02-23T00:53:40;6.90;99.90
46438;DHT22;32137;48.728;9.142;2024-02-23T00:56:05;7.10;99.90
46438;DHT22;32137;48.728;9.142;2024-02-23T00:58:31;6.70;99.90
46438;DHT22;32137;48.728;9.142;2024-02-23T01:00:56;6.80;99.90
46438;DHT22;32137;48.728;9.142;2024-02-23T01:03:22;7.00;99.90
46438;DHT22;32137;48.728;9.142;2024-02-23T01:05:47;7.10;99.90
46438;DHT22;32137;48.728;9.142;2024-02-23T01:08:13;7.00;99.90
46438;DHT22;32137;48.728;9.142;2024-02-23T01:10:38;6.70;99.90
46438;DHT22;32137;48.728;9.142;2024-02-23T01:13:04;6.80;99.90
46438;DHT22;32137;48.728;9.142;2024-02-23T01:15:30;7.00;99.90
46438;DHT22;32137;48.728;9.142;2024-02-23T01:17:56;6.80;99.90
46438;DHT22;32137;48.728;9.142;2024-02-23T01:20:21;6.90;99.90
46438;DHT22;32137;48.728;9.142;2024-02-23T01:22:47;7.00;99.90
46438;DHT22;32137;48.728;9.142;2024-02-23T01:25:12;6.90;99.90
46438;DHT22;32137;48.728;9.142;2024-02-23T01:27:41;7.00;99.90
46438;DHT22;32137;48.728;9.142;2024-02-23T01:30:06;6.70;99.90
46438;DHT22;32137;48.728;9.142;2024-02-23T01:32:32;6.60;99.90
46438;DHT22;32137;48.728;9.142;2024-02-23T01:34:58;6.60;99.90
46438;DHT22;32137;48.728;9.142;2024-02-23T01:37:23;6.70;99.90
46438;DHT22;32137;48.728;9.142;2024-02-23T01:39:49;6.90;99.90
46438;DHT22;32137;48.728;9.142;2024-02-23T01:42:14;6.90;99.90
46438;DHT22;32137;48.728;9.142;2024-02-23T01:44:39;6.60;99.90
46438;DHT22;32137;48.728;9.142;2024-02-23T01:47:05;6.90;99.90
46438;DHT22;32137;48.728;9.142;2024-02-23T01:49:30;6.60;99.90
46438;DHT22;32137;48.728;9.142;2024-02-23T01:51:59;6.60;99.90
46438;DHT22;32137;48.728;9.142;2024-02-23T01:54:25;7.00;99.90
46438;DHT22;32137;48.728;9.142;2024-02-23T01:56:51;6.60;99.90
46438;DHT22;32137;48.728;9.142;2024-02-23T01:59:16;6.90;99.90
46438;DHT22;32137;48.728;9.142;2024-02-23T02:01:45;6.60;99.90
46438;DHT22;32137;48.728;9.142;2024-02-23T02:04:11;7.00;99.90
46438;DHT22;32137;48.728;9.142;2024-02-23T02:06:36;6.60;99.90
46438;DHT22;32137;48.728;9.142;2024-02-23T02:09:02;6.70;99.90
46438;DHT22;32137;48.728;9.142;2024-02-23T02:11:27;6.50;99.90
46438;DHT22;32137;48.728;9.142;2024-02-23T02:13:53;6.80;99.90
46438;DHT22;32137;48.728;9.142;2024-02-23T02:16:18;6.80;99.90
46438;DHT22;32137;48.728;9.142;2024-02-23T02:18:44;6.60;99.90
46438;DHT22;32137;48.728;9.142;2024-02-23T02:21:11;6.60;99.90
46438;DHT22;32137;48.728;9.142;2024-02-23T02:23:36;6.40;99.90
46438;DHT22;32137;48.728;9.142;2024-02-23T02:26:02;6.80;99.90
46438;DHT22;32137;48.728;9.142;2024-02-23T02:28:28;6.50;99.90
46438;DHT22;32137;48.728;9.142;2024-02-23T02:30:54;6.30;99.90
46438;DHT22;32137;48.728;9.142;2024-02-23T02:33:19;6.40;99.90
46438;DHT22;32137;48.728;9.142;2024-02-23T02:35:45;6.60;99.90
46438;DHT22;32137;48.728;9.142;2024-02-23T02:38:11;6.40;99.90
46438;DHT22;32137;48.728;9.142;2024-02-23T02:40:36;6.70;99.90
46438;DHT22;32137;48.728;9.142;2024-02-23T02:43:02;6.30;99.90
46438;DHT22;32137;48.728;9.142;2024-02-23T02:45:28;6.50;99.90
46438;DHT22;32137;48.728;9.142;2024-02-23T02:47:53;6.60;99.90
46438;DHT22;32137;48.728;9.142;2024-02-23T02:50:19;6.60;99.90
46438;DHT22;32137;48.728;9.142;2024-02-23T02:52:44;6.60;99.90
46438;DHT22;32137;48.728;9.142;2024-02-23T02:55:10;6.60;99.90
46438;DHT22;32137;48.728;9.142;2024-02-23T02:57:35;6.60;99.90
46438;DHT22;32137;48.728;9.142;2024-02-23T03:00:02;6.30;99.90
46438;DHT22;32137;48.728;9.142;2024-02-23T03:02:30;6.50;99.90
46438;DHT22;32137;48.728;9.142;2024-02-23T03:04:55;6.40;99.90
46438;DHT22;32137;48.728;9.142;2024-02-23T03:07:21;6.00;99.90
46438;DHT22;32137;48.728;9.142;2024-02-23T03:09:46;5.90;99.90
46438;DHT22;32137;48.728;9.142;2024-02-23T03:12:12;6.30;99.90
46438;DHT22;32137;48.728;9.142;2024-02-23T03:14:37;6.30;99.90
46438;DHT22;32137;48.728;9.142;2024-02-23T03:17:06;6.10;99.90
46438;DHT22;32137;48.728;9.142;2024-02-23T03:19:32;5.80;99.90
46438;DHT22;32137;48.728;9.142;2024-02-23T03:21:58;6.10;99.90
46438;DHT22;32137;48.728;9.142;2024-02-23T03:24:23;5.70;99.90
46438;DHT22;32137;48.728;9.142;2024-02-23T03:26:49;5.70;99.90
46438;DHT22;32137;48.728;9.142;2024-02-23T03:29:14;5.60;99.90
46438;DHT22;32137;48.728;9.142;2024-02-23T03:31:40;6.00;99.90
46438;DHT22;32137;48.728;9.142;2024-02-23T03:34:05;5.60;99.90
46438;DHT22;32137;48.728;9.142;2024-02-23T03:36:31;5.60;99.90
46438;DHT22;32137;48.728;9.142;2024-02-23T03:38:56;5.70;99.90
46438;DHT22;32137;48.728;9.142;2024-02-23T03:41:21;5.90;99.90
46438;DHT22;32137;48.728;9.142;2024-02-23T03:43:47;5.70;99.90
46438;DHT22;32137;48.728;9.142;2024-02-23T03:46:12;5.90;99.90
46438;DHT22;32137;48.728;9.142;2024-02-23T03:48:40;5.60;99.90
46438;DHT22;32137;48.728;9.142;2024-02-23T03:51:05;5.80;99.90
46438;DHT22;32137;48.728;9.142;2024-02-23T03:53:31;5.30;99.90
46438;DHT22;32137;48.728;9.142;2024-02-23T03:55:56;5.70;99.90
46438;DHT22;32137;48.728;9.142;2024-02-23T03:58:22;5.40;99.90
46438;DHT22;32137;48.728;9.142;2024-02-23T04:00:48;5.50;99.90
46438;DHT22;32137;48.728;9.142;2024-02-23T04:03:13;5.40;99.90
46438;DHT22;32137;48.728;9.142;2024-02-23T04:05:39;5.70;99.90
46438;DHT22;32137;48.728;9.142;2024-02-23T04:08:04;5.30;99.90
46438;DHT22;32137;48.728;9.142;2024-02-23T04:10:30;5.70;99.90
46438;DHT22;32137;48.728;9.142;2024-02-23T04:12:55;5.80;99.90
46438;DHT22;32137;48.728;9.142;2024-02-23T04:15:21;5.60;99.90
46438;DHT22;32137;48.728;9.142;2024-02-23T04:17:46;5.30;99.90
46438;DHT22;32137;48.728;9.142;2024-02-23T04:20:12;5.10;99.90
46438;DHT22;32137;48.728;9.142;2024-02-23T04:22:37;5.00;99.90
46438;DHT22;32137;48.728;9.142;2024-02-23T04:25:03;5.40;99.90
46438;DHT22;32137;48.728;9.142;2024-02-23T04:27:30;5.30;99.90
46438;DHT22;32137;48.728;9.142;2024-02-23T04:29:55;5.50;99.90
46438;DHT22;32137;48.728;9.142;2024-02-23T04:32:21;5.10;99.90
46438;DHT22;32137;48.728;9.142;2024-02-23T04:34:46;5.20;99.90
46438;DHT22;32137;48.728;9.142;2024-02-23T04:37:12;5.30;99.90
46438;DHT22;32137;48.728;9.142;2024-02-23T04:39:37;5.30;99.90
46438;DHT22;32137;48.728;9.142;2024-02-23T04:42:04;5.70;99.90
46438;DHT22;32137;48.728;9.142;2024-02-23T04:44:29;5.30;99.90
46438;DHT22;32137;48.728;9.142;2024-02-23T04:46:55;5.80;99.90
46438;DHT22;32137;48.728;9.142;2024-02-23T04:49:20;5.40;99.90
46438;DHT22;32137;48.728;9.142;2024-02-23T04:51:46;5.70;99.90
46438;DHT22;32137;48.728;9.142;2024-02-23T04:54:11;5.80;99.90
46438;DHT22;32137;48.728;9.142;2024-02-23T04:56:36;5.70;99.90
46438;DHT22;32137;48.728;9.142;2024-02-23T04:59:02;5.50;99.90
46438;DHT22;32137;48.728;9.142;2024-02-23T05:01:28;5.60;99.90
46438;DHT22;32137;48.728;9.142;2024-02-23T05:03:54;5.50;99.90
46438;DHT22;32137;48.728;9.142;2024-02-23T05:06:19;5.80;99.90
46438;DHT22;32137;48.728;9.142;2024-02-23T05:08:45;5.90;99.90
46438;DHT22;32137;48.728;9.142;2024-02-23T05:11:10;5.80;99.90
46438;DHT22;32137;48.728;9.142;2024-02-23T05:13:35;5.90;99.90
46438;DHT22;32137;48.728;9.142;2024-02-23T05:16:03;5.90;99.90
46438;DHT22;32137;48.728;9.142;2024-02-23T05:18:28;5.80;99.90
46438;DHT22;32137;48.728;9.142;2024-02-23T05:20:54;5.90;99.90
46438;DHT22;32137;48.728;9.142;2024-02-23T05:23:19;5.60;99.90
46438;DHT22;32137;48.728;9.142;2024-02-23T05:25:44;5.40;99.90
46438;DHT22;32137;48.728;9.142;2024-02-23T05:28:10;5.70;99.90
46438;DHT22;32137;48.728;9.142;2024-02-23T05:30:36;5.30;99.90
46438;DHT22;32137;48.728;9.142;2024-02-23T05:33:02;5.60;99.90
46438;DHT22;32137;48.728;9.142;2024-02-23T05:35:29;5.60;99.90
46438;DHT22;32137;48.728;9.142;2024-02-23T05:37:54;5.70;99.90
46438;DHT22;32137;48.728;9.142;2024-02-23T05:40:20;5.40;99.90
46438;DHT22;32137;48.728;9.142;2024-02-23T05:42:46;5.70;99.90
46438;DHT22;32137;48.728;9.142;2024-02-23T05:45:11;5.70;99.90
46438;DHT22;32137;48.728;9.142;2024-02-23T05:47:37;5.60;99.90
46438;DHT22;32137;48.728;9.142;2024-02-23T05:50:03;5.70;99.90
46438;DHT22;32137;48.728;9.142;2024-02-23T05:52:31;5.40;99.90
46438;DHT22;32137;48.728;9.142;2024-02-23T05:54:56;5.30;99.90
46438;DHT22;32137;48.728;9.142;2024-02-23T05:57:22;5.60;99.90
46438;DHT22;32137;48.728;9.142;2024-02-23T05:59:47;5.60;99.90
46438;DHT22;32137;48.728;9.142;2024-02-23T06:02:13;5.30;99.90
46438;DHT22;32137;48.728;9.142;2024-02-23T06:04:40;5.20;99.90
46438;DHT22;32137;48.728;9.142;2024-02-23T06:07:05;5.60;99.90
46438;DHT22;32137;48.728;9.142;2024-02-23T06:09:31;5.60;99.90
46438;DHT22;32137;48.728;9.142;2024-02-23T06:11:56;5.20;99.90
46438;DHT22;32137;48.728;9.142;2024-02-23T06:14:21;5.60;99.90
46438;DHT22;32137;48.728;9.142;2024-02-23T06:16:48;5.40;99.90
46438;DHT22;32137;48.728;9.142;2024-02-23T06:19:14;5.50;99.90
46438;DHT22;32137;48.728;9.142;2024-02-23T06:21:40;5.40;99.90
46438;DHT22;32137;48.728;9.142;2024-02-23T06:24:05;5.10;99.90
46438;DHT22;32137;48.728;9.142;2024-02-23T06:26:33;5.10;99.90
46438;DHT22;32137;48.728;9.142;2024-02-23T06:28:58;5.50;99.90
46438;DHT22;32137;48.728;9.142;2024-02-23T06:31:23;5.10;99.90
46438;DHT22;32137;48.728;9.142;2024-02-23T06:33:50;5.20;99.90
46438;DHT22;32137;48.728;9.142;2024-02-23T06:36:17;5.30;99.90
46438;DHT22;32137;48.728;9.142;2024-02-23T06:38:43;5.60;99.90
46438;DHT22;32137;48.728;9.142;2024-02-23T06:41:09;5.20;99.90
46438;DHT22;32137;48.728;9.142;2024-02-23T06:43:36;5.60;99.90
46438;DHT22;32137;48.728;9.142;2024-02-23T06:46:07;5.30;99.90
46438;DHT22;32137;48.728;9.142;2024-02-23T06:48:36;5.70;99.90
46438;DHT22;32137;48.728;9.142;2024-02-23T06:51:02;5.40;99.90
46438;DHT22;32137;48.728;9.142;2024-02-23T06:53:29;5.70;99.90
46438;DHT22;32137;48.728;9.142;2024-02-23T06:55:54;5.50;99.90
46438;DHT22;32137;48.728;9.142;2024-02-23T06:58:20;5.80;99.90
46438;DHT22;32137;48.728;9.142;2024-02-23T07:00:45;5.50;99.90
46438;DHT22;32137;48.728;9.142;2024-02-23T07:03:11;5.60;99.90
46438;DHT22;32137;48.728;9.142;2024-02-23T07:05:36;5.60;99.90
46438;DHT22;32137;48.728;9.142;2024-02-23T07:08:02;5.60;99.90
46438;DHT22;32137;48.728;9.142;2024-02-23T07:10:28;5.70;99.90
46438;DHT22;32137;48.728;9.142;2024-02-23T07:12:54;5.80;99.90
46438;DHT22;32137;48.728;9.142;2024-02-23T07:15:21;5.70;99.90
46438;DHT22;32137;48.728;9.142;2024-02-23T07:17:47;5.50;99.90
46438;DHT22;32137;48.728;9.142;2024-02-23T07:20:12;5.50;99.90
46438;DHT22;32137;48.728;9.142;2024-02-23T07:22:38;5.70;99.90
46438;DHT22;32137;48.728;9.142;2024-02-23T07:25:04;5.50;99.90
46438;DHT22;32137;48.728;9.142;2024-02-23T07:27:29;5.80;99.90
46438;DHT22;32137;48.728;9.142;2024-02-23T07:29:56;5.90;99.90
46438;DHT22;32137;48.728;9.142;2024-02-23T07:32:21;5.70;99.90
46438;DHT22;32137;48.728;9.142;2024-02-23T07:34:47;5.50;99.90
46438;DHT22;32137;48.728;9.142;2024-02-23T07:37:12;5.80;99.90
46438;DHT22;32137;48.728;9.142;2024-02-23T07:39:38;5.70;99.90
46438;DHT22;32137;48.728;9.142;2024-02-23T07:42:03;5.60;99.90
46438;DHT22;32137;48.728;9.142;2024-02-23T07:44:31;5.90;99.90
46438;DHT22;32137;48.728;9.142;2024-02-23T07:46:56;5.90;99.90
46438;DHT22;32137;48.728;9.142;2024-02-23T07:49:23;5.90;99.90
46438;DHT22;32137;48.728;9.142;2024-02-23T07:51:49;5.90;99.90
46438;DHT22;32137;48.728;9.142;2024-02-23T07:54:14;6.00;99.90
46438;DHT22;32137;48.728;9.142;2024-02-23T07:56:40;5.70;99.90
46438;DHT22;32137;48.728;9.142;2024-02-23T07:59:05;6.00;99.90
46438;DHT22;32137;48.728;9.142;2024-02-23T08:01:31;5.90;99.90
46438;DHT22;32137;48.728;9.142;2024-02-23T08:03:56;5.70;99.90
46438;DHT22;32137;48.728;9.142;2024-02-23T08:06:22;5.70;99.90
46438;DHT22;32137;48.728;9.142;2024-02-23T08:08:47;5.70;99.90
46438;DHT22;32137;48.728;9.142;2024-02-23T08:11:13;5.60;99.90
46438;DHT22;32137;48.728;9.142;2024-02-23T08:13:41;5.80;99.90
46438;DHT22;32137;48.728;9.142;2024-02-23T08:16:07;5.80;99.90
46438;DHT22;32137;48.728;9.142;2024-02-23T08:18:32;5.70;99.90
46438;DHT22;32137;48.728;9.142;2024-02-23T08:20:58;5.70;99.90
46438;DHT22;32137;48.728;9.142;2024-02-23T08:23:23;5.80;99.90
46438;DHT22;32137;48.728;9.142;2024-02-23T08:25:49;5.60;99.90
46438;DHT22;32137;48.728;9.142;2024-02-23T08:28:16;5.60;99.90
46438;DHT22;32137;48.728;9.142;2024-02-23T08:30:41;5.60;99.90
46438;DHT22;32137;48.728;9.142;2024-02-23T08:33:07;5.90;99.90
46438;DHT22;32137;48.728;9.142;2024-02-23T08:35:35;5.70;99.90
46438;DHT22;32137;48.728;9.142;2024-02-23T08:38:00;5.60;99.90
46438;DHT22;32137;48.728;9.142;2024-02-23T08:40:26;5.80;99.90
46438;DHT22;32137;48.728;9.142;2024-02-23T08:42:51;5.60;99.90
46438;DHT22;32137;48.728;9.142;2024-02-23T08:45:17;5.80;99.90
46438;DHT22;32137;48.728;9.142;2024-02-23T08:47:43;5.60;99.90
46438;DHT22;32137;48.728;9.142;2024-02-23T08:50:08;5.60;99.90
46438;DHT22;32137;48.728;9.142;2024-02-23T08:52:34;5.50;99.90
46438;DHT22;32137;48.728;9.142;2024-02-23T08:54:59;5.70;99.90
46438;DHT22;32137;48.728;9.142;2024-02-23T08:57:28;5.80;99.90
46438;DHT22;32137;48.728;9.142;2024-02-23T08:59:54;5.80;99.90
46438;DHT22;32137;48.728;9.142;2024-02-23T09:02:22;5.80;99.90
46438;DHT22;32137;48.728;9.142;2024-02-23T09:04:48;5.70;99.90
46438;DHT22;32137;48.728;9.142;2024-02-23T09:07:13;5.70;99.90
46438;DHT22;32137;48.728;9.142;2024-02-23T09:09:39;5.60;99.90
46438;DHT22;32137;48.728;9.142;2024-02-23T09:12:05;5.80;99.90
46438;DHT22;32137;48.728;9.142;2024-02-23T09:14:32;5.60;99.90
46438;DHT22;32137;48.728;9.142;2024-02-23T09:16:58;5.70;99.90
46438;DHT22;32137;48.728;9.142;2024-02-23T09:19:24;5.50;99.90
46438;DHT22;32137;48.728;9.142;2024-02-23T09:21:49;5.60;99.90
46438;DHT22;32137;48.728;9.142;2024-02-23T09:24:15;5.80;99.90
46438;DHT22;32137;48.728;9.142;2024-02-23T09:26:40;5.90;99.90
46438;DHT22;32137;48.728;9.142;2024-02-23T09:29:06;5.80;99.90
46438;DHT22;32137;48.728;9.142;2024-02-23T09:31:32;5.90;99.90
46438;DHT22;32137;48.728;9.142;2024-02-23T09:33:58;6.00;99.90
46438;DHT22;32137;48.728;9.142;2024-02-23T09:36:23;6.00;99.90
46438;DHT22;32137;48.728;9.142;2024-02-23T09:38:49;5.90;99.90
46438;DHT22;32137;48.728;9.142;2024-02-23T09:41:22;5.90;99.90
46438;DHT22;32137;48.728;9.142;2024-02-23T09:43:48;6.10;99.90
46438;DHT22;32137;48.728;9.142;2024-02-23T09:46:15;5.90;99.90
46438;DHT22;32137;48.728;9.142;2024-02-23T09:48:42;6.00;99.90
46438;DHT22;32137;48.728;9.142;2024-02-23T09:51:07;6.10;99.90
46438;DHT22;32137;48.728;9.142;2024-02-23T09:53:36;6.10;99.90
46438;DHT22;32137;48.728;9.142;2024-02-23T09:56:01;6.10;99.90
46438;DHT22;32137;48.728;9.142;2024-02-23T09:58:28;6.30;99.90
46438;DHT22;32137;48.728;9.142;2024-02-23T10:00:55;6.30;99.90
46438;DHT22;32137;48.728;9.142;2024-02-23T10:03:22;6.40;99.90
46438;DHT22;32137;48.728;9.142;2024-02-23T10:05:51;6.60;99.90
46438;DHT22;32137;48.728;9.142;2024-02-23T10:08:16;6.70;99.90
46438;DHT22;32137;48.728;9.142;2024-02-23T10:10:42;6.80;99.90
46438;DHT22;32137;48.728;9.142;2024-02-23T10:13:10;6.70;99.90
46438;DHT22;32137;48.728;9.142;2024-02-23T10:15:36;6.70;99.90
46438;DHT22;32137;48.728;9.142;2024-02-23T10:18:01;6.70;99.90
46438;DHT22;32137;48.728;9.142;2024-02-23T10:20:27;6.60;99.90
46438;DHT22;32137;48.728;9.142;2024-02-23T10:22:52;6.70;99.90
46438;DHT22;32137;48.728;9.142;2024-02-23T10:25:19;6.60;99.90
46438;DHT22;32137;48.728;9.142;2024-02-23T10:27:44;6.80;99.90
46438;DHT22;32137;48.728;9.142;2024-02-23T10:30:10;6.90;99.90
46438;DHT22;32137;48.728;9.142;2024-02-23T10:32:40;7.00;99.90
46438;DHT22;32137;48.728;9.142;2024-02-23T10:35:08;6.90;99.90
46438;DHT22;32137;48.728;9.142;2024-02-23T10:37:34;7.00;99.90
46438;DHT22;32137;48.728;9.142;2024-02-23T10:40:00;6.90;99.90
46438;DHT22;32137;48.728;9.142;2024-02-23T10:42:27;7.10;99.90
46438;DHT22;32137;48.728;9.142;2024-02-23T10:44:54;7.20;99.90
46438;DHT22;32137;48.728;9.142;2024-02-23T10:47:20;7.30;99.90
46438;DHT22;32137;48.728;9.142;2024-02-23T10:49:46;7.30;99.90
46438;DHT22;32137;48.728;9.142;2024-02-23T10:52:12;7.40;99.90
46438;DHT22;32137;48.728;9.142;2024-02-23T10:54:39;7.40;99.90
46438;DHT22;32137;48.728;9.142;2024-02-23T10:57:05;7.40;99.90
46438;DHT22;32137;48.728;9.142;2024-02-23T10:59:31;7.30;99.90
46438;DHT22;32137;48.728;9.142;2024-02-23T11:01:57;7.40;99.90
46438;DHT22;32137;48.728;9.142;2024-02-23T11:04:25;7.30;99.90
46438;DHT22;32137;48.728;9.142;2024-02-23T11:06:51;7.40;99.90
46438;DHT22;32137;48.728;9.142;2024-02-23T11:09:16;7.50;99.90
46438;DHT22;32137;48.728;9.142;2024-02-23T11:11:55;7.40;99.90
46438;DHT22;32137;48.728;9.142;2024-02-23T11:14:31;7.50;99.90
46438;DHT22;32137;48.728;9.142;2024-02-23T11:16:57;7.50;99.90
46438;DHT22;32137;48.728;9.142;2024-02-23T11:19:31;7.40;99.90
46438;DHT22;32137;48.728;9.142;2024-02-23T11:21:57;7.50;99.90
46438;DHT22;32137;48.728;9.142;2024-02-23T11:24:25;7.50;99.90
46438;DHT22;32137;48.728;9.142;2024-02-23T11:26:50;7.60;99.90
46438;DHT22;32137;48.728;9.142;2024-02-23T11:29:21;7.60;99.90
46438;DHT22;32137;48.728;9.142;2024-02-23T11:31:47;7.70;99.90
46438;DHT22;32137;48.728;9.142;2024-02-23T11:34:12;7.70;99.90
46438;DHT22;32137;48.728;9.142;2024-02-23T11:36:38;7.80;99.90
46438;DHT22;32137;48.728;9.142;2024-02-23T11:39:03;7.80;99.90
46438;DHT22;32137;48.728;9.142;2024-02-23T11:41:29;7.90;99.90
46438;DHT22;32137;48.728;9.142;2024-02-23T11:43:55;7.90;99.90
46438;DHT22;32137;48.728;9.142;2024-02-23T11:46:21;7.90;99.90
46438;DHT22;32137;48.728;9.142;2024-02-23T11:48:47;7.60;99.90
46438;DHT22;32137;48.728;9.142;2024-02-23T11:51:19;7.80;99.90
46438;DHT22;32137;48.728;9.142;2024-02-23T11:53:44;7.80;99.90
46438;DHT22;32137;48.728;9.142;2024-02-23T11:56:11;8.00;99.90
46438;DHT22;32137;48.728;9.142;2024-02-23T11:58:36;8.00;99.90
46438;DHT22;32137;48.728;9.142;2024-02-23T12:01:03;8.10;99.90
46438;DHT22;32137;48.728;9.142;2024-02-23T12:03:29;8.10;99.90
46438;DHT22;32137;48.728;9.142;2024-02-23T12:05:56;8.20;99.90
46438;DHT22;32137;48.728;9.142;2024-02-23T12:08:22;8.40;99.90
46438;DHT22;32137;48.728;9.142;2024-02-23T12:10:49;8.20;99.90
46438;DHT22;32137;48.728;9.142;2024-02-23T12:13:14;8.20;99.90
46438;DHT22;32137;48.728;9.142;2024-02-23T12:15:40;8.10;99.90
46438;DHT22;32137;48.728;9.142;2024-02-23T12:18:05;7.90;99.90
46438;DHT22;32137;48.728;9.142;2024-02-23T12:20:34;7.90;99.90
46438;DHT22;32137;48.728;9.142;2024-02-23T12:23:00;8.10;99.90
46438;DHT22;32137;48.728;9.142;2024-02-23T12:25:26;8.10;99.90
46438;DHT22;32137;48.728;9.142;2024-02-23T12:27:55;8.10;99.90
46438;DHT22;32137;48.728;9.142;2024-02-23T12:30:21;8.10;99.90
46438;DHT22;32137;48.728;9.142;2024-02-23T12:32:46;8.00;99.90
46438;DHT22;32137;48.728;9.142;2024-02-23T12:35:12;8.10;99.90
46438;DHT22;32137;48.728;9.142;2024-02-23T12:37:37;7.80;99.90
46438;DHT22;32137;48.728;9.142;2024-02-23T12:40:04;7.80;99.90
46438;DHT22;32137;48.728;9.142;2024-02-23T12:42:31;7.70;99.90
46438;DHT22;32137;48.728;9.142;2024-02-23T12:44:56;7.70;99.90
46438;DHT22;32137;48.728;9.142;2024-02-23T12:47:22;7.80;99.90
46438;DHT22;32137;48.728;9.142;2024-02-23T12:49:47;7.70;99.90
46438;DHT22;32137;48.728;9.142;2024-02-23T12:52:12;7.80;99.90
46438;DHT22;32137;48.728;9.142;2024-02-23T12:54:38;7.80;99.90
46438;DHT22;32137;48.728;9.142;2024-02-23T12:57:04;7.80;99.90
46438;DHT22;32137;48.728;9.142;2024-02-23T12:59:30;7.90;99.90
46438;DHT22;32137;48.728;9.142;2024-02-23T13:01:56;8.00;99.90
46438;DHT22;32137;48.728;9.142;2024-02-23T13:04:21;8.00;99.90
46438;DHT22;32137;48.728;9.142;2024-02-23T13:06:47;8.10;99.90
46438;DHT22;32137;48.728;9.142;2024-02-23T13:09:12;8.20;99.90
46438;DHT22;32137;48.728;9.142;2024-02-23T13:11:40;8.40;99.90
46438;DHT22;32137;48.728;9.142;2024-02-23T13:14:06;8.60;99.90
46438;DHT22;32137;48.728;9.142;2024-02-23T13:16:31;9.00;99.90
46438;DHT22;32137;48.728;9.142;2024-02-23T13:18:57;9.00;99.90
46438;DHT22;32137;48.728;9.142;2024-02-23T13:21:22;8.80;99.90
46438;DHT22;32137;48.728;9.142;2024-02-23T13:23:49;9.00;99.90
46438;DHT22;32137;48.728;9.142;2024-02-23T13:26:14;8.70;99.90
46438;DHT22;32137;48.728;9.142;2024-02-23T13:28:41;8.70;99.90
46438;DHT22;32137;48.728;9.142;2024-02-23T13:31:07;8.60;99.90
46438;DHT22;32137;48.728;9.142;2024-02-23T13:33:32;8.70;99.90
46438;DHT22;32137;48.728;9.142;2024-02-23T13:35:58;8.50;99.90
46438;DHT22;32137;48.728;9.142;2024-02-23T13:38:24;8.40;99.90
46438;DHT22;32137;48.728;9.142;2024-02-23T13:40:49;8.40;99.90
46438;DHT22;32137;48.728;9.142;2024-02-23T13:43:15;8.50;99.90
46438;DHT22;32137;48.728;9.142;2024-02-23T13:45:51;8.40;99.90
46438;DHT22;32137;48.728;9.142;2024-02-23T13:48:17;8.40;99.90
46438;DHT22;32137;48.728;9.142;2024-02-23T13:50:44;8.40;99.90
46438;DHT22;32137;48.728;9.142;2024-02-23T13:53:10;8.50;99.90
46438;DHT22;32137;48.728;9.142;2024-02-23T13:55:36;8.40;99.90
46438;DHT22;32137;48.728;9.142;2024-02-23T13:58:01;8.50;99.90
46438;DHT22;32137;48.728;9.142;2024-02-23T14:00:27;8.50;99.90
46438;DHT22;32137;48.728;9.142;2024-02-23T14:02:53;8.50;99.90
46438;DHT22;32137;48.728;9.142;2024-02-23T14:05:18;8.50;99.90
46438;DHT22;32137;48.728;9.142;2024-02-23T14:07:44;8.50;99.90
46438;DHT22;32137;48.728;9.142;2024-02-23T14:10:10;8.60;99.90
46438;DHT22;32137;48.728;9.142;2024-02-23T14:12:35;8.70;99.90
46438;DHT22;32137;48.728;9.142;2024-02-23T14:15:01;8.60;99.90
46438;DHT22;32137;48.728;9.142;2024-02-23T14:17:26;8.70;99.90
46438;DHT22;32137;48.728;9.142;2024-02-23T14:19:52;8.50;99.90
46438;DHT22;32137;48.728;9.142;2024-02-23T14:22:17;8.60;99.90
46438;DHT22;32137;48.728;9.142;2024-02-23T14:24:43;8.50;99.90
46438;DHT22;32137;48.728;9.142;2024-02-23T14:27:08;8.50;99.90
46438;DHT22;32137;48.728;9.142;2024-02-23T14:29:34;8.40;99.90
46438;DHT22;32137;48.728;9.142;2024-02-23T14:31:59;8.60;99.90
46438;DHT22;32137;48.728;9.142;2024-02-23T14:34:26;8.30;99.90
46438;DHT22;32137;48.728;9.142;2024-02-23T14:36:52;8.60;99.90
46438;DHT22;32137;48.728;9.142;2024-02-23T14:39:18;8.60;99.90
46438;DHT22;32137;48.728;9.142;2024-02-23T14:41:43;8.60;99.90
46438;DHT22;32137;48.728;9.142;2024-02-23T14:44:08;8.70;99.90
46438;DHT22;32137;48.728;9.142;2024-02-23T14:46:34;8.80;99.90
46438;DHT22;32137;48.728;9.142;2024-02-23T14:48:59;8.70;99.90
46438;DHT22;32137;48.728;9.142;2024-02-23T14:51:25;8.40;99.90
46438;DHT22;32137;48.728;9.142;2024-02-23T14:53:50;8.60;99.90
46438;DHT22;32137;48.728;9.142;2024-02-23T14:56:16;8.60;99.90
46438;DHT22;32137;48.728;9.142;2024-02-23T14:58:41;8.60;99.90
46438;DHT22;32137;48.728;9.142;2024-02-23T15:01:07;8.60;99.90
46438;DHT22;32137;48.728;9.142;2024-02-23T15:03:32;8.40;99.90
46438;DHT22;32137;48.728;9.142;2024-02-23T15:05:58;8.40;99.90
46438;DHT22;32137;48.728;9.142;2024-02-23T15:08:24;8.40;99.90
46438;DHT22;32137;48.728;9.142;2024-02-23T15:10:49;8.30;99.90
46438;DHT22;32137;48.728;9.142;2024-02-23T15:13:16;8.40;99.90
46438;DHT22;32137;48.728;9.142;2024-02-23T15:15:42;8.30;99.90
46438;DHT22;32137;48.728;9.142;2024-02-23T15:18:07;8.20;99.90
46438;DHT22;32137;48.728;9.142;2024-02-23T15:20:33;8.20;99.90
46438;DHT22;32137;48.728;9.142;2024-02-23T15:22:59;8.20;99.90
46438;DHT22;32137;48.728;9.142;2024-02-23T15:25:24;8.20;99.90
46438;DHT22;32137;48.728;9.142;2024-02-23T15:27:50;8.30;99.90
46438;DHT22;32137;48.728;9.142;2024-02-23T15:30:17;8.30;99.90
46438;DHT22;32137;48.728;9.142;2024-02-23T15:32:43;8.30;99.90
46438;DHT22;32137;48.728;9.142;2024-02-23T15:35:09;8.10;99.90